Terminal Aerodrome Forecast
Issued by NWS Lake Charles, LA

Home | Current Version | Previous Version | Text Only | Print | Product List | Glossary On
Versions: 1 2 3 4 5 6 7 8 9 10 11 12 13 14
178
FTUS44 KLCH 051124
TAFLFT
TAF
KLFT 051124Z 0512/0612 03006KT P6SM SHRA OVC003
      TEMPO 0514/0518 04012KT 2SM TSRA OVC004CB
     FM051900 07011KT P6SM -SHRA OVC003
      TEMPO 0519/0523 08011KT 2SM TSRA OVC004CB
     FM060000 VRB06KT P6SM OVC007
     FM060600 29010G16KT P6SM OVC007=

USA.gov is the U.S. government's official web portal to all federal, state and local government web resources and services.